Flight Track Log - Related Links

Times and Time Zones

All times are in EDT time to prevent confusion due to time zone crossing. See the N994BD flight status page for this flight to view local times or setup timezone preferences in your user account.

Time Position Orientation Groundspeed Altitude Reporting Facility
EDT Latitude Longitude Course Direction KTS MPH feet Rate Location/Type
Sat 03:30:00 PM 30.0249 -85.1535 340° North  Level FlightAware Approximate
Sat 03:31:00 PM 30.0713 -85.1732 340° North  Level FlightAware Approximate
Sat 03:32:00 PM 30.1176 -85.1930 340° North  Level FlightAware Approximate
Sat 03:33:00 PM 30.1640 -85.2127 340° North  Level FlightAware Approximate
Sat 03:34:00 PM 30.2103 -85.2325 340° North  Level FlightAware Approximate
Sat 03:35:00 PM 30.2566 -85.2523 340° North  Level FlightAware Approximate
Sat 03:36:00 PM 30.3030 -85.2721 340° North  Level FlightAware Approximate
Sat 03:37:00 PM 30.3493 -85.2920 340° North  Level FlightAware Approximate
Sat 03:38:00 PM 30.3956 -85.3118 340° North  Level FlightAware Approximate
Sat 03:39:00 PM 30.4419 -85.3317 340° North  Level FlightAware Approximate
Sat 03:40:00 PM 30.4883 -85.3516 340° North  Level FlightAware Approximate
Sat 03:41:00 PM 30.5346 -85.3715 340° North  Level FlightAware Approximate
Sat 03:42:00 PM 30.5809 -85.3914 340° North  Level FlightAware Approximate
Sat 03:43:00 PM 30.6272 -85.4114 340° North  Level FlightAware Approximate
Sat 03:44:00 PM 30.6735 -85.4314 340° North  Level FlightAware Approximate
Sat 03:45:00 PM 30.7197 -85.4514 338° Northwest  Level FlightAware Approximate
Sat 03:46:00 PM 30.7656 -85.4730 338° Northwest  Level FlightAware Approximate
Sat 03:46:07 PM 30.5333 -85.5431 338° Northwest 148 170 6,100  Level Jacksonville Center
Sat 03:47:00 PM 30.8113 -85.4945 338° Northwest  Level FlightAware Approximate
Sat 03:47:13 PM 30.5794 -85.5347 North 154 177 6,100  Level Jacksonville Center
Sat 03:48:00 PM 30.8571 -85.5160 338° Northwest  Level FlightAware Approximate
Sat 03:48:14 PM 30.6208 -85.5503 342° North 150 173 6,100  Level Jacksonville Center
Sat 03:49:00 PM 30.9029 -85.5376 338° Northwest  Level FlightAware Approximate
Sat 03:49:14 PM 30.6600 -85.5731 333° Northwest 154 177 6,100  Level Jacksonville Center
Sat 03:50:00 PM 30.9487 -85.5592 338° Northwest  Level FlightAware Approximate
Sat 03:50:15 PM 30.6950 -85.5958 331° Northwest 154 177 6,100  Level Jacksonville Center
Sat 03:51:00 PM 30.9945 -85.5807 338° Northwest  Level FlightAware Approximate
Sat 03:51:22 PM 30.7383 -85.6211 333° Northwest 155 178 6,100  Level Jacksonville Center
Sat 03:52:28 PM 30.7817 -85.6492 331° Northwest 154 177 6,100  Level Jacksonville Center
Sat 03:53:29 PM 30.8211 -85.6600 347° North 157 181 6,100  Level Jacksonville Center
Sat 03:54:30 PM 30.8647 -85.6636 356° North 153 176 6,100 198 Level Jacksonville Center
Sat 03:55:30 PM 30.8978 -85.6792 338° Northwest 129 148 6,500 149 Climbing Jacksonville Center
Sat 03:56:31 PM 30.9328 -85.7019 331° Northwest 136 157 6,400 -148 Descending Jacksonville Center
Sat 03:57:32 PM 30.9761 -85.7275 333° Northwest 168 193 6,200 -94 Descending Jacksonville Center
Sat 03:58:38 PM 31.0172 -85.7531 332° Northwest 162 186 6,200  Level Jacksonville Center
Sat 03:59:39 PM 31.0564 -85.7758 334° Northwest 154 177 6,200  Level Jacksonville Center
Sat 04:00:39 PM 31.0914 -85.8036 326° Northwest 155 178 6,200  Level Jacksonville Center
Sat 04:01:40 PM 31.1283 -85.8339 325° Northwest 155 178 6,200  Level Jacksonville Center
Sat 04:02:41 PM 31.1631 -85.8667 321° Northwest 152 175 6,200  Level Jacksonville Center
Sat 04:03:41 PM 31.2000 -85.8847 337° Northwest 155 178 6,200 -50 Level Jacksonville Center
Sat 04:04:42 PM 31.2436 -85.9008 342° North 160 184 6,100 -99 Descending Jacksonville Center
Sat 04:05:42 PM 31.2869 -85.9167 343° North 161 185 6,000  Descending Jacksonville Center
Sat 04:06:43 PM 31.3325 -85.9353 341° North 163 188 6,100 49 Climbing Jacksonville Center
Sat 04:07:44 PM 31.3739 -85.9486 345° North 163 188 6,100  Level Jacksonville Center
Sat 04:08:44 PM 31.4175 -85.9622 345° North 160 184 6,100  Level Jacksonville Center
Sat 04:09:45 PM 31.4589 -85.9758 344° North 161 185 6,100  Level Jacksonville Center
Sat 04:10:45 PM 31.5044 -85.9944 341° North 163 188 6,100  Level Jacksonville Center
Sat 04:11:46 PM 31.5478 -86.0081 345° North 161 185 6,100  Level Jacksonville Center
Sat 04:12:47 PM 31.5933 -86.0267 341° North 163 188 6,100  Level Jacksonville Center
Sat 04:13:47 PM 31.6347 -86.0428 342° North 164 189 6,100  Level Jacksonville Center
Sat 04:14:42 PM 31.6761 -86.0586 342° North 163 188 6,100 Level Jacksonville Center
Sat 04:16:00 PM 31.7357 -86.0604 359° North  Level FlightAware Approximate
Sat 04:23:00 PM 32.0564 -86.1066 342° North  Level FlightAware Approximate
Sat 04:24:00 PM 32.1003 -86.1223 344° North  Level FlightAware Approximate
Sat 04:25:00 PM 32.1444 -86.1370 344° North  Level FlightAware Approximate
Sat 04:26:00 PM 32.1886 -86.1517 344° North  Level FlightAware Approximate
Sat 04:27:00 PM 32.2327 -86.1665 344° North  Level FlightAware Approximate
Sat 04:28:00 PM 32.2771 -86.1803 345° North  Level FlightAware Approximate
Sat 04:29:00 PM 32.3214 -86.1941 345° North  Level FlightAware Approximate
Sat 04:30:00 PM 32.3658 -86.2080 345° North  Level FlightAware Approximate
Sat 04:31:00 PM 32.4101 -86.2219 345° North  Level FlightAware Approximate
Sat 04:32:00 PM 32.4545 -86.2357 345° North  Level FlightAware Approximate
Sat 04:33:00 PM 32.4988 -86.2496 345° North  Level FlightAware Approximate
Sat 04:34:00 PM 32.5415 -86.2694 339° North  Level FlightAware Approximate
Sat 04:35:00 PM 32.5842 -86.2893 339° North  Level FlightAware Approximate
Sat 04:36:00 PM 32.6269 -86.3092 339° North  Level FlightAware Approximate
Sat 04:37:00 PM 32.6696 -86.3291 339° North  Level FlightAware Approximate
Sat 04:38:00 PM 32.7123 -86.3491 339° North  Level FlightAware Approximate
Sat 04:39:00 PM 32.7549 -86.3691 339° North  Level FlightAware Approximate
Sat 04:40:00 PM 32.7976 -86.3891 338° Northwest  Level FlightAware Approximate
Sat 04:41:00 PM 32.8403 -86.4091 338° Northwest  Level FlightAware Approximate
Sat 04:42:00 PM 32.8829 -86.4292 338° Northwest  Level FlightAware Approximate
Sat 04:43:00 PM 32.9256 -86.4492 338° Northwest  Level FlightAware Approximate
Sat 04:43:25 PM 32.8725 -86.5839 337° Northwest 161 185 6,200  Level Atlanta Center
Sat 04:44:00 PM 32.9683 -86.4693 338° Northwest  Level FlightAware Approximate
Sat 04:44:25 PM 32.9139 -86.5972 345° North 160 184 6,200  Level Atlanta Center
Sat 04:45:00 PM 33.0109 -86.4894 338° Northwest  Level FlightAware Approximate
Sat 04:45:26 PM 32.9575 -86.6086 348° North 160 184 6,200  Level Atlanta Center
Sat 04:46:00 PM 33.0534 -86.5100 337° Northwest  Level FlightAware Approximate
Sat 04:46:26 PM 32.9992 -86.6222 345° North 159 183 6,200  Level Atlanta Center
Sat 04:47:00 PM 33.0957 -86.5311 337° Northwest  Level FlightAware Approximate
Sat 04:47:27 PM 33.0406 -86.6383 342° North 162 186 6,100  Level Atlanta Center
Sat 04:48:00 PM 33.1380 -86.5523 337° Northwest  Level FlightAware Approximate
Sat 04:48:28 PM 33.0814 -86.6717 326° Northwest 177 204 5,600  Level Atlanta Center
Sat 04:49:00 PM 33.1803 -86.5735 337° Northwest  Level FlightAware Approximate

Login

Don't have an account? Register now (free) for customized features, flight alerts, and more!